Time;durP1;ratioP1;P1;durP2;ratioP2;P2;SDS_P1;SDS_P2;PMS_P1;PMS_P2;Temp;Humidity;BMP_temperature;BMP_pressure;BME280_temperature;BME280_humidity;BME280_pressure;Samples;Min_cycle;Max_cycle;Signal;HPM_P1;HPM_P2
2022/09/29 04:22:33;;;;;;;5.18;2.67;;;;;;;6.04;100.00;98721.69;5088949;28;20336;-59
2022/09/29 04:24:59;;;;;;;8.27;3.47;;;;;;;5.98;100.00;98717.94;5089032;28;20036;-61
2022/09/29 04:27:24;;;;;;;7.60;2.88;;;;;;;5.98;100.00;98717.94;5085674;28;20045;-59
2022/09/29 04:29:50;;;;;;;5.28;2.35;;;;;;;6.06;100.00;98724.16;5068786;28;20064;-60
2022/09/29 04:32:15;;;;;;;6.53;2.65;;;;;;;5.97;100.00;98712.84;5068386;28;20045;-62
2022/09/29 04:34:41;;;;;;;7.80;2.90;;;;;;;6.04;100.00;98724.34;5068788;28;20041;-59
2022/09/29 04:37:11;;;;;;;5.05;2.65;;;;;;;5.93;100.00;98711.56;5069129;28;20041;-62
2022/09/29 04:39:37;;;;;;;10.23;3.17;;;;;;;5.99;100.00;98718.78;5068681;28;20041;-63
2022/09/29 04:42:02;;;;;;;4.97;1.95;;;;;;;6.06;100.00;98724.97;5068415;28;20037;-61
2022/09/29 04:44:28;;;;;;;3.88;2.05;;;;;;;6.09;100.00;98719.34;5068505;28;20071;-61
2022/09/29 04:46:53;;;;;;;5.53;2.25;;;;;;;6.01;100.00;98729.19;5068501;28;20052;-63
2022/09/29 04:49:19;;;;;;;5.32;2.90;;;;;;;6.04;100.00;98731.44;5068420;28;20071;-63
2022/09/29 04:51:45;;;;;;;5.20;2.78;;;;;;;6.10;100.00;98728.09;5068054;28;20543;-62
2022/09/29 04:54:10;;;;;;;6.30;2.40;;;;;;;6.12;100.00;98734.81;5068405;28;20028;-63
2022/09/29 04:56:36;;;;;;;6.13;2.70;;;;;;;6.19;100.00;98730.47;5068182;28;20082;-63
2022/09/29 04:59:01;;;;;;;4.30;2.40;;;;;;;6.22;100.00;98738.03;5068145;28;20131;-62
2022/09/29 05:01:27;;;;;;;7.40;3.22;;;;;;;6.24;100.00;98736.03;5067773;28;20045;-63
2022/09/29 05:03:52;;;;;;;7.95;2.55;;;;;;;6.24;100.00;98741.31;5068145;28;20109;-63
2022/09/29 05:06:18;;;;;;;5.35;1.73;;;;;;;6.10;100.00;98742.13;5068175;28;20041;-63
2022/09/29 05:08:43;;;;;;;5.78;2.65;;;;;;;6.15;100.00;98747.69;5068122;28;20032;-63
2022/09/29 05:11:09;;;;;;;4.75;2.13;;;;;;;6.20;100.00;98749.81;5067755;28;20405;-63
2022/09/29 05:13:35;;;;;;;3.80;1.85;;;;;;;6.20;100.00;98741.88;5067922;28;20724;-63
2022/09/29 05:16:02;;;;;;;4.82;2.60;;;;;;;6.21;100.00;98743.50;5067761;28;20430;-63
2022/09/29 05:18:28;;;;;;;4.43;1.85;;;;;;;6.23;100.00;98750.25;5068144;28;20029;-62
2022/09/29 05:20:54;;;;;;;5.90;2.33;;;;;;;6.22;100.00;98750.44;5067553;28;20028;-62
2022/09/29 05:23:19;;;;;;;4.70;2.38;;;;;;;6.21;100.00;98759.38;5067738;28;20110;-63
2022/09/29 05:25:45;;;;;;;5.97;2.20;;;;;;;6.25;100.00;98755.34;5067561;28;20106;-61
2022/09/29 05:28:13;;;;;;;6.13;2.63;;;;;;;6.25;100.00;98740.31;5067579;28;20037;-59
2022/09/29 05:30:40;;;;;;;5.53;2.20;;;;;;;6.31;100.00;98746.69;5066992;28;20028;-60
2022/09/29 05:33:05;;;;;;;3.65;2.00;;;;;;;6.34;100.00;98756.09;5058805;28;20044;-58
2022/09/29 05:35:31;;;;;;;5.85;2.92;;;;;;;6.34;100.00;98754.28;5054284;28;20037;-57
2022/09/29 05:37:57;;;;;;;6.05;3.00;;;;;;;6.39;100.00;98753.72;5054264;28;20083;-62
2022/09/29 05:40:23;;;;;;;9.98;3.05;;;;;;;6.40;100.00;98752.72;5053864;28;20087;-62
2022/09/29 05:42:49;;;;;;;4.75;1.90;;;;;;;6.40;100.00;98752.72;5054087;28;20456;-62
2022/09/29 05:45:15;;;;;;;4.35;2.83;;;;;;;6.45;100.00;98761.72;5054107;28;20041;-61
2022/09/29 05:47:42;;;;;;;4.80;2.80;;;;;;;6.48;100.00;98753.44;5054121;28;20079;-62
2022/09/29 05:50:08;;;;;;;5.85;2.72;;;;;;;6.47;100.00;98749.16;5053562;28;20170;-62
2022/09/29 05:52:33;;;;;;;6.55;3.28;;;;;;;6.55;100.00;98750.91;5053739;28;20464;-51
2022/09/29 05:54:59;;;;;;;5.38;2.50;;;;;;;6.60;100.00;98748.53;5053808;28;20047;-50
2022/09/29 05:57:24;;;;;;;5.65;2.50;;;;;;;6.62;100.00;98746.50;5053578;28;20115;-49
2022/09/29 05:59:50;;;;;;;6.13;2.50;;;;;;;6.70;100.00;98758.81;5053620;28;20406;-61
2022/09/29 06:02:15;;;;;;;6.47;3.08;;;;;;;6.73;100.00;98758.47;5053512;28;20037;-61
2022/09/29 06:04:41;;;;;;;6.10;2.63;;;;;;;6.78;100.00;98756.91;5053637;28;20127;-60
2022/09/29 06:07:06;;;;;;;6.85;2.67;;;;;;;6.83;100.00;98752.84;5053582;28;20036;-60
2022/09/29 06:09:34;;;;;;;6.95;2.88;;;;;;;6.86;100.00;98760.44;5053541;28;20107;-61
2022/09/29 06:12:00;;;;;;;3.50;2.42;;;;;;;6.86;100.00;98755.16;5044067;28;20457;-60
2022/09/29 06:14:25;;;;;;;5.30;2.72;;;;;;;6.86;100.00;98763.91;5052214;28;20041;-60
2022/09/29 06:16:50;;;;;;;4.22;1.95;;;;;;;6.88;100.00;98761.88;5053179;28;20136;-61
2022/09/29 06:19:16;;;;;;;7.43;3.50;;;;;;;6.91;100.00;98753.59;5053192;28;20044;-61
2022/09/29 06:21:41;;;;;;;6.30;2.35;;;;;;;6.93;100.00;98753.41;5052432;28;20124;-59
2022/09/29 06:24:07;;;;;;;8.95;3.35;;;;;;;6.98;100.00;98756.31;5053444;28;20037;-61
2022/09/29 06:26:33;;;;;;;4.63;2.17;;;;;;;6.99;100.00;98755.31;5053029;28;20486;-61
2022/09/29 06:28:58;;;;;;;6.63;2.80;;;;;;;7.06;100.00;98758.84;5053143;28;20505;-62
2022/09/29 06:31:26;;;;;;;5.25;2.05;;;;;;;7.08;100.00;98765.59;5051188;28;20037;-60
2022/09/29 06:33:51;;;;;;;3.08;1.95;;;;;;;7.10;100.00;98757.44;5053139;28;20552;-59
2022/09/29 06:39:08;;;;;;;6.95;2.90;;;;;;;7.17;100.00;98753.06;5053069;28;20033;-61
2022/09/29 06:41:34;;;;;;;5.63;2.50;;;;;;;7.26;100.00;98759.88;5051997;28;20039;-60
2022/09/29 06:44:00;;;;;;;4.82;2.30;;;;;;;7.33;100.00;98766.06;5052144;28;20037;-61
2022/09/29 06:46:25;;;;;;;9.30;2.63;;;;;;;7.37;100.00;98765.66;5052559;28;20052;-62
2022/09/29 06:48:52;;;;;;;4.93;2.55;;;;;;;7.38;100.00;98765.50;5052562;28;20025;-61
2022/09/29 06:51:21;;;;;;;4.35;2.45;;;;;;;7.45;100.00;98774.34;5051817;28;20048;-62
2022/09/29 06:53:47;;;;;;;7.65;3.05;;;;;;;7.49;100.00;98782.72;5052535;28;20037;-61
2022/09/29 06:56:12;;;;;;;6.53;2.80;;;;;;;7.55;100.00;98788.09;5052245;28;20136;-62
2022/09/29 06:58:38;;;;;;;3.08;2.30;;;;;;;7.61;100.00;98781.22;5052482;28;20485;-61
2022/09/29 07:01:04;;;;;;;5.25;2.95;;;;;;;7.70;100.00;98780.09;5051687;28;20037;-61
2022/09/29 07:03:30;;;;;;;4.78;3.17;;;;;;;7.77;100.00;98777.50;5052528;28;20037;-62
2022/09/29 07:05:56;;;;;;;4.05;2.40;;;;;;;7.81;100.00;98782.19;5052142;28;20060;-61
2022/09/29 07:08:22;;;;;;;7.25;3.20;;;;;;;7.93;100.00;98781.69;5052223;28;20707;-61
2022/09/29 07:10:47;;;;;;;8.23;3.05;;;;;;;7.96;100.00;98776.03;5050710;28;20439;-62
2022/09/29 07:13:13;;;;;;;5.88;2.80;;;;;;;8.11;100.00;98787.34;5052220;28;20119;-62
2022/09/29 07:15:38;;;;;;;5.45;3.00;;;;;;;8.19;100.00;98784.56;5052182;28;20049;-61
2022/09/29 07:18:04;;;;;;;6.70;3.05;;;;;;;8.28;100.00;98771.94;5052227;28;20036;-61
2022/09/29 07:20:30;;;;;;;6.50;2.90;;;;;;;8.40;100.00;98784.50;5051691;28;20085;-62
2022/09/29 07:22:57;;;;;;;6.97;3.15;;;;;;;8.50;100.00;98778.06;5052063;28;20037;-62
2022/09/29 07:25:23;;;;;;;3.72;2.35;;;;;;;8.62;100.00;98781.81;5051881;28;20047;-62
2022/09/29 07:27:50;;;;;;;8.57;3.03;;;;;;;8.68;100.00;98776.53;5053416;28;20044;-60
2022/09/29 07:30:16;;;;;;;5.18;2.97;;;;;;;8.78;100.00;98783.31;5065649;28;20036;-62
2022/09/29 07:32:42;;;;;;;8.55;2.58;;;;;;;8.88;100.00;98783.78;5056970;28;20033;-62
2022/09/29 07:35:08;;;;;;;5.78;2.95;;;;;;;9.00;100.00;98781.34;5068659;28;20078;-60
2022/09/29 07:37:33;;;;;;;4.32;2.40;;;;;;;9.13;100.00;98781.41;5056997;28;20855;-59
2022/09/29 07:39:59;;;;;;;8.20;3.10;;;;;;;9.20;100.00;98779.59;5062432;28;20046;-60
2022/09/29 07:42:27;;;;;;;7.50;3.45;;;;;;;9.36;100.00;98789.03;5063778;28;20047;-59
2022/09/29 07:44:55;;;;;;;8.18;3.25;;;;;;;9.42;100.00;98793.56;5054868;28;20460;-60
2022/09/29 07:47:21;;;;;;;6.95;3.53;;;;;;;9.50;100.00;98791.50;5066390;28;20064;-58
2022/09/29 07:49:47;;;;;;;5.65;2.78;;;;;;;9.54;100.00;98783.16;5058820;28;20033;-61
2022/09/29 07:52:13;;;;;;;5.50;3.40;;;;;;;9.59;100.00;98788.69;5060150;28;20076;-61
2022/09/29 07:54:39;;;;;;;7.95;3.22;;;;;;;9.61;100.00;98791.97;5065907;28;20070;-57
2022/09/29 07:57:04;;;;;;;6.70;3.65;;;;;;;9.60;100.00;98798.31;5054541;28;20039;-61
2022/09/29 07:59:30;;;;;;;14.63;4.00;;;;;;;9.64;100.00;98796.84;5066430;28;20056;-61
2022/09/29 08:01:56;;;;;;;9.98;4.75;;;;;;;9.66;100.00;98797.50;5059531;28;20060;-62
2022/09/29 08:04:21;;;;;;;10.77;4.63;;;;;;;9.74;100.00;98802.59;5059098;28;20116;-61
2022/09/29 08:06:47;;;;;;;11.40;4.45;;;;;;;9.80;100.00;98804.47;5066311;28;20036;-62
2022/09/29 08:09:13;;;;;;;9.27;3.70;;;;;;;9.91;100.00;98808.34;5054473;28;20438;-62
2022/09/29 08:11:41;;;;;;;8.13;4.70;;;;;;;10.01;100.00;98804.25;5064712;28;20116;-62
2022/09/29 08:14:08;;;;;;;7.38;4.05;;;;;;;10.15;100.00;98796.28;5061122;28;20067;-61
2022/09/29 08:16:35;;;;;;;7.18;3.78;;;;;;;10.36;100.00;98803.25;5056133;28;20045;-61
2022/09/29 08:19:01;;;;;;;10.48;3.90;;;;;;;10.53;100.00;98801.81;5067717;28;20036;-62
2022/09/29 08:21:28;;;;;;;5.50;3.58;;;;;;;10.70;100.00;98803.00;5055139;28;20040;-63
2022/09/29 08:23:54;;;;;;;7.45;4.13;;;;;;;10.83;100.00;98812.81;5062729;28;20083;-61
2022/09/29 08:26:21;;;;;;;7.70;4.13;;;;;;;10.84;100.00;98809.09;5050680;28;20123;-61
2022/09/29 08:28:47;;;;;;;7.38;3.85;;;;;;;10.99;100.00;98814.16;5049896;28;20041;-62
2022/09/29 08:31:16;;;;;;;8.60;4.40;;;;;;;11.06;100.00;98813.13;5068421;28;20037;-63
2022/09/29 08:33:42;;;;;;;7.63;3.58;;;;;;;11.12;100.00;98820.28;5069816;28;20048;-61
2022/09/29 08:36:13;;;;;;;9.23;4.20;;;;;;;11.14;100.00;98804.06;5071259;28;20036;-61
2022/09/29 08:38:41;;;;;;;15.90;4.53;;;;;;;11.37;100.00;98812.38;5071350;28;20102;-60
2022/09/29 08:41:26;;;;;;;7.50;4.38;;;;;;;11.55;100.00;98821.53;5070938;28;20055;-63
2022/09/29 08:43:56;;;;;;;7.15;4.55;;;;;;;11.65;100.00;98824.53;5071312;28;20166;-61
2022/09/29 08:46:32;;;;;;;7.97;4.30;;;;;;;11.66;100.00;98828.81;5071154;28;20056;-56
2022/09/29 08:49:04;;;;;;;8.20;4.53;;;;;;;11.72;100.00;98835.97;5070037;28;20043;-58
2022/09/29 08:51:40;;;;;;;9.88;4.70;;;;;;;11.78;100.00;98836.97;5070851;28;20041;-56
2022/09/29 08:54:15;;;;;;;15.07;4.82;;;;;;;11.79;100.00;98841.25;5071116;28;20182;-57
2022/09/29 08:56:41;;;;;;;8.45;4.53;;;;;;;11.87;100.00;98843.72;5071060;28;20051;-58
2022/09/29 08:59:10;;;;;;;5.60;3.67;;;;;;;11.97;100.00;98844.03;5061199;28;20025;-61
2022/09/29 09:01:56;;;;;;;9.43;4.70;;;;;;;12.02;100.00;98848.75;5050782;28;20037;-60
2022/09/29 09:04:43;;;;;;;8.55;4.47;;;;;;;12.14;100.00;98852.34;5051080;28;20048;-58
2022/09/29 09:07:42;;;;;;;7.80;4.78;;;;;;;12.01;100.00;98847.94;5050972;28;20531;-55
2022/09/29 09:10:16;;;;;;;8.80;4.80;;;;;;;11.91;98.50;98847.56;5054576;28;20513;-56
2022/09/29 09:13:29;;;;;;;11.80;4.88;;;;;;;12.11;98.81;98856.25;5054698;28;20052;-61
2022/09/29 09:16:24;;;;;;;14.60;5.60;;;;;;;12.21;99.11;98850.44;5054522;28;20041;-61
2022/09/29 09:19:28;;;;;;;6.30;3.88;;;;;;;12.36;100.00;98852.78;5054568;28;20036;-61
2022/09/29 09:22:21;;;;;;;12.45;5.82;;;;;;;12.43;99.84;98861.56;5054084;28;20390;-62
2022/09/29 09:24:55;;;;;;;7.47;4.03;;;;;;;12.55;99.30;98862.47;5054953;28;20389;-62
2022/09/29 09:27:27;;;;;;;8.88;4.60;;;;;;;12.59;96.74;98861.00;5054775;28;20047;-60
2022/09/29 09:30:05;;;;;;;12.32;4.57;;;;;;;12.43;100.00;98848.19;5054453;28;20037;-59
2022/09/29 09:32:36;;;;;;;10.02;4.15;;;;;;;12.59;97.97;98850.34;5054424;28;20482;-59
2022/09/29 09:35:20;;;;;;;6.07;3.55;;;;;;;12.71;96.96;98859.25;5054427;28;20036;-59
2022/09/29 09:37:47;;;;;;;8.82;3.35;;;;;;;12.97;93.36;98854.66;5054401;28;20037;-60
2022/09/29 09:40:25;;;;;;;5.57;3.60;;;;;;;13.14;93.32;98850.34;5053868;28;20076;-60
2022/09/29 09:43:18;;;;;;;10.95;3.97;;;;;;;13.33;91.48;98853.06;5054193;28;20040;-61
2022/09/29 09:46:15;;;;;;;7.65;3.70;;;;;;;13.50;88.23;98856.75;5054253;28;20478;-62
2022/09/29 09:48:47;;;;;;;7.80;4.05;;;;;;;13.67;87.07;98854.25;5032478;28;20415;-61
2022/09/29 09:51:34;;;;;;;9.90;4.22;;;;;;;13.77;87.15;98852.69;5053664;28;20044;-61
2022/09/29 09:54:08;;;;;;;7.65;3.58;;;;;;;13.90;86.23;98851.69;5053979;28;20047;-62
2022/09/29 09:56:51;;;;;;;8.68;3.67;;;;;;;13.93;83.75;98851.19;5053996;28;20041;-60
2022/09/29 09:59:54;;;;;;;4.90;2.70;;;;;;;14.12;83.48;98862.66;5053873;28;20073;-61
2022/09/29 10:02:21;;;;;;;5.10;3.00;;;;;;;14.17;84.83;98852.09;5053765;28;20060;-59
2022/09/29 10:04:50;;;;;;;4.95;3.13;;;;;;;14.40;89.17;98864.69;5053943;28;20071;-61
2022/09/29 10:07:22;;;;;;;8.23;3.45;;;;;;;14.42;86.50;98861.78;5053556;28;20130;-62
2022/09/29 10:09:47;;;;;;;9.82;3.40;;;;;;;14.42;82.65;98859.94;5053566;28;20041;-57
2022/09/29 10:12:24;;;;;;;5.85;3.25;;;;;;;14.27;81.98;98855.00;5053356;28;20120;-56
2022/09/29 10:14:58;;;;;;;8.25;3.03;;;;;;;13.94;82.95;98855.50;5047801;28;20494;-58
2022/09/29 10:17:29;;;;;;;4.93;3.08;;;;;;;14.01;84.40;98860.75;5053376;28;20044;-55
2022/09/29 10:20:06;;;;;;;5.18;3.30;;;;;;;14.41;81.45;98866.34;5052837;28;20048;-59
2022/09/29 10:22:33;;;;;;;8.10;3.25;;;;;;;15.19;76.41;98865.13;5052830;28;20124;-58
2022/09/29 10:25:06;;;;;;;7.63;4.22;;;;;;;15.76;77.22;98865.22;5053170;28;20570;-59
2022/09/29 10:27:32;;;;;;;13.48;5.07;;;;;;;15.69;77.94;98861.88;5053242;28;20029;-57
2022/09/29 10:29:58;;;;;;;7.95;4.47;;;;;;;15.96;76.87;98864.78;5052827;28;20106;-56
2022/09/29 10:32:36;;;;;;;10.15;4.38;;;;;;;16.45;76.12;98857.84;5052211;28;20033;-56
2022/09/29 10:35:07;;;;;;;7.45;4.03;;;;;;;16.27;73.08;98863.44;5052935;28;20464;-56
2022/09/29 10:37:40;;;;;;;8.48;4.05;;;;;;;15.90;77.58;98865.75;5052883;28;20055;-57
2022/09/29 10:40:09;;;;;;;8.25;3.47;;;;;;;16.50;77.11;98859.81;5052466;28;20067;-56
2022/09/29 10:42:36;;;;;;;9.57;4.35;;;;;;;17.29;70.52;98856.91;5052260;28;20024;-60
2022/09/29 10:45:14;;;;;;;6.15;3.63;;;;;;;18.01;66.16;98853.13;5052590;28;20037;-57
2022/09/29 10:47:41;;;;;;;;;;;;;;;18.37;66.89;98855.06;5053101;28;20025;-56
2022/09/29 10:50:28;;;;;;;8.07;3.90;;;;;;;18.09;64.70;98847.28;5051994;28;20423;-58
2022/09/29 10:52:56;;;;;;;6.43;3.50;;;;;;;18.52;60.23;98849.00;5052459;28;20045;-56
2022/09/29 10:55:26;;;;;;;6.90;2.70;;;;;;;18.62;59.26;98857.13;5052365;28;20037;-62
2022/09/29 10:57:54;;;;;;;4.72;2.55;;;;;;;18.47;58.35;98848.94;5052602;28;20056;-62
2022/09/29 11:00:35;;;;;;;3.97;2.80;;;;;;;18.66;58.91;98852.88;5051786;28;20124;-62
2022/09/29 11:03:19;;;;;;;4.60;3.00;;;;;;;18.63;58.92;98841.75;5052548;28;20036;-60
2022/09/29 11:06:08;;;;;;;5.05;2.90;;;;;;;18.54;58.87;98840.63;5052568;28;20457;-61
2022/09/29 11:08:53;;;;;;;2.95;2.22;;;;;;;17.62;62.75;98848.69;5052583;28;20098;-61
2022/09/29 11:11:28;;;;;;;5.90;3.20;;;;;;;17.31;64.17;98847.50;5052202;28;20044;-58
2022/09/29 11:13:56;;;;;;;5.03;2.70;;;;;;;16.92;64.21;98851.28;5111794;22;20090;-61
2022/09/29 11:16:32;;;;;;;5.00;3.22;;;;;;;16.58;67.32;98847.81;5092679;28;20067;-61
2022/09/29 11:19:06;;;;;;;7.38;3.13;;;;;;;16.51;69.12;98856.88;5092572;28;20046;-62
2022/09/29 11:21:34;;;;;;;4.75;2.80;;;;;;;16.26;69.95;98848.41;5092305;28;20031;-61
2022/09/29 11:24:50;;;;;;;4.25;2.70;;;;;;;16.17;72.61;98857.91;5092350;28;20034;-60
2022/09/29 11:27:47;;;;;;;5.50;2.75;;;;;;;15.93;71.30;98859.91;5069824;28;20540;-62
2022/09/29 11:30:18;;;;;;;6.25;3.45;;;;;;;15.60;73.27;98868.66;5091820;28;20036;-61
2022/09/29 11:33:08;;;;;;;3.65;2.72;;;;;;;15.50;75.54;98871.13;5092463;28;20115;-64
2022/09/29 11:35:52;;;;;;;3.90;2.63;;;;;;;15.29;76.18;98869.91;5092549;28;20036;-58
2022/09/29 11:38:37;;;;;;;4.90;3.05;;;;;;;15.09;74.26;98864.94;5092401;28;20392;-60
2022/09/29 11:41:14;;;;;;;4.35;3.00;;;;;;;14.98;75.65;98868.44;5092035;28;20085;-60
2022/09/29 11:43:49;;;;;;;3.60;2.70;;;;;;;14.70;75.55;98872.66;5092225;28;20079;-57
2022/09/29 11:46:38;;;;;;;4.97;3.05;;;;;;;14.57;78.13;98862.19;5092235;28;20043;-60
2022/09/29 11:49:41;;;;;;;5.90;3.47;;;;;;;14.52;79.58;98876.25;5092183;28;20043;-60
2022/09/29 11:52:27;;;;;;;7.22;3.05;;;;;;;14.49;80.83;98875.94;5091600;28;20377;-59
2022/09/29 11:55:22;;;;;;;5.53;3.47;;;;;;;14.34;80.98;98869.13;5050729;28;20126;-60
2022/09/29 11:57:58;;;;;;;7.30;4.40;;;;;;;14.40;80.02;98872.72;5060549;28;20554;-57
2022/09/29 12:01:00;;;;;;;11.18;4.30;;;;;;;14.28;80.74;98864.69;5091892;28;20567;-55
2022/09/29 12:03:34;;;;;;;4.95;3.35;;;;;;;14.37;81.63;98859.78;5073944;28;20047;-59
2022/09/29 12:06:19;;;;;;;5.60;3.30;;;;;;;14.42;80.75;98856.44;5091869;28;20036;-59
2022/09/29 12:09:01;;;;;;;5.05;3.17;;;;;;;14.56;80.41;98861.38;5091894;28;20036;-58
2022/09/29 12:12:01;;;;;;;4.22;3.22;;;;;;;14.61;80.45;98855.31;5091520;28;20047;-62
2022/09/29 12:15:07;;;;;;;5.55;3.47;;;;;;;14.77;79.02;98868.00;5044184;28;20079;-61
2022/09/29 12:17:38;;;;;;;4.53;3.03;;;;;;;14.65;78.91;98869.88;5007105;28;20537;-61
2022/09/29 12:20:18;;;;;;;5.35;3.60;;;;;;;14.74;78.78;98868.47;5063201;28;20048;-59
2022/09/29 12:22:45;;;;;;;6.30;3.22;;;;;;;14.85;78.20;98875.69;5090850;28;20117;-60
2022/09/29 12:25:17;;;;;;;4.47;3.00;;;;;;;14.57;79.16;98870.22;5091047;28;20047;-61
2022/09/29 12:27:46;;;;;;;7.97;3.08;;;;;;;14.79;79.20;98871.25;5090935;28;20032;-61
2022/09/29 12:30:19;;;;;;;6.95;3.30;;;;;;;14.85;79.08;98864.97;5090620;28;20053;-59
2022/09/29 12:33:12;;;;;;;4.75;2.97;;;;;;;15.00;78.33;98867.19;5090683;28;20036;-61
2022/09/29 12:36:01;;;;;;;4.60;2.72;;;;;;;14.89;74.96;98863.44;5069766;28;20047;-62
2022/09/29 12:38:37;;;;;;;5.28;3.08;;;;;;;14.63;75.67;98862.06;5079805;28;20546;-58
2022/09/29 12:41:22;;;;;;;4.90;2.33;;;;;;;14.76;75.14;98857.53;5090126;28;20032;-61
2022/09/29 12:43:57;;;;;;;3.97;2.65;;;;;;;14.70;76.14;98855.78;5093442;28;20377;-58
2022/09/29 12:46:53;;;;;;;3.38;2.35;;;;;;;14.85;75.27;98856.91;5094473;28;20059;-60
2022/09/29 12:49:42;;;;;;;3.30;2.10;;;;;;;14.87;74.61;98865.56;5094587;28;20051;-60
2022/09/29 12:52:21;;;;;;;4.45;1.90;;;;;;;15.03;73.10;98858.66;5046717;28;20713;-61
2022/09/29 12:54:55;;;;;;;3.30;1.98;;;;;;;15.13;74.56;98860.75;5095114;28;20043;-62
2022/09/29 12:57:23;;;;;;;4.15;2.22;;;;;;;15.21;74.96;98865.75;5095306;28;20431;-60
2022/09/29 13:00:23;;;;;;;2.53;2.08;;;;;;;15.19;74.50;98862.47;5095109;28;20044;-60
2022/09/29 13:03:06;;;;;;;2.95;1.80;;;;;;;15.32;74.73;98866.75;5050899;28;20116;-61
2022/09/29 13:06:06;;;;;;;4.82;1.88;;;;;;;15.34;73.53;98864.66;5094968;28;20035;-62
2022/09/29 13:08:39;;;;;;;4.38;2.17;;;;;;;15.19;73.87;98870.50;5092631;28;20388;-61
2022/09/29 13:11:23;;;;;;;6.18;2.63;;;;;;;15.35;73.33;98872.47;5082791;28;20499;-60
2022/09/29 13:14:27;;;;;;;4.47;2.17;;;;;;;15.41;73.60;98871.53;5085470;28;20031;-61
2022/09/29 13:17:13;;;;;;;8.02;2.10;;;;;;;15.39;74.18;98865.59;5095559;28;20450;-59
2022/09/29 13:19:50;;;;;;;6.68;1.95;;;;;;;15.39;73.22;98870.94;5059532;28;20048;-59
2022/09/29 13:22:49;;;;;;;5.20;2.35;;;;;;;15.09;71.99;98879.16;5094838;28;20485;-61
2022/09/29 13:25:43;;;;;;;6.13;2.40;;;;;;;15.21;71.75;98876.47;5094587;28;20523;-61
2022/09/29 13:28:30;;;;;;;6.10;2.63;;;;;;;15.18;72.88;98882.28;5037963;28;20500;-59
2022/09/29 13:31:01;;;;;;;11.60;3.00;;;;;;;15.09;73.56;98873.81;5094259;28;20028;-55
2022/09/29 13:33:26;;;;;;;5.03;2.55;;;;;;;15.11;72.50;98885.09;5094426;28;20519;-57
2022/09/29 13:35:52;;;;;;;6.72;2.38;;;;;;;15.05;74.20;98879.88;5072907;28;20048;-54
2022/09/29 13:38:38;;;;;;;5.03;2.28;;;;;;;14.98;75.62;98873.81;5094332;28;20035;-58
2022/09/29 13:41:15;;;;;;;2.83;1.73;;;;;;;15.10;75.13;98882.66;5094099;28;20032;-59
2022/09/29 13:43:50;;;;;;;4.00;2.13;;;;;;;15.17;73.27;98883.34;5094177;28;20032;-54
2022/09/29 13:46:30;;;;;;;4.72;1.80;;;;;;;15.21;72.10;98889.88;5093941;28;20124;-59
2022/09/29 13:49:11;;;;;;;3.25;2.22;;;;;;;15.31;73.03;98890.06;5094127;28;20154;-57
2022/09/29 13:51:52;;;;;;;5.22;2.08;;;;;;;15.37;71.79;98899.88;5093726;28;20120;-57
2022/09/29 13:54:18;;;;;;;1.92;1.48;;;;;;;15.22;71.56;98893.38;5093671;28;20066;-59
2022/09/29 13:56:50;;;;;;;3.63;1.50;;;;;;;15.15;70.51;98890.81;5093768;28;20064;-58
2022/09/29 13:59:22;;;;;;;4.03;2.15;;;;;;;15.26;69.81;98898.03;5072358;28;20413;-58
2022/09/29 14:01:49;;;;;;;4.85;1.60;;;;;;;15.28;68.08;98892.44;5091638;28;20506;-58
2022/09/29 14:04:52;;;;;;;5.07;1.63;;;;;;;14.87;70.18;98894.25;5070235;28;20032;-60
2022/09/29 14:07:44;;;;;;;1.40;0.90;;;;;;;14.58;69.00;98904.81;5077159;28;20420;-59
2022/09/29 14:10:25;;;;;;;1.23;1.00;;;;;;;14.54;70.67;98902.81;5078120;28;20020;-58
2022/09/29 14:13:00;;;;;;;1.63;0.93;;;;;;;14.29;68.94;98901.13;5093535;28;20547;-55
2022/09/29 14:15:32;;;;;;;2.05;0.90;;;;;;;14.02;70.26;98894.53;5093221;28;20039;-58
2022/09/29 14:18:02;;;;;;;0.93;0.85;;;;;;;13.98;70.57;98896.84;5092814;28;20024;-57
2022/09/29 14:20:32;;;;;;;2.60;1.00;;;;;;;13.80;69.56;98883.50;5092954;28;20404;-56
2022/09/29 14:23:01;;;;;;;2.38;0.85;;;;;;;13.79;70.49;98888.03;5093772;28;20028;-57
2022/09/29 14:25:49;;;;;;;0.52;0.52;;;;;;;13.91;71.95;98895.31;5092393;28;20118;-59
2022/09/29 14:28:35;;;;;;;1.20;0.93;;;;;;;13.90;73.25;98904.41;5093573;28;20042;-54
2022/09/29 14:31:02;;;;;;;1.20;0.50;;;;;;;13.96;72.73;98901.63;5093460;28;20502;-60
2022/09/29 14:33:41;;;;;;;1.95;0.90;;;;;;;14.03;71.65;98901.53;5093587;28;20174;-56
2022/09/29 14:36:13;;;;;;;1.60;0.80;;;;;;;14.13;72.41;98913.31;5093509;28;20441;-60
2022/09/29 14:38:54;;;;;;;1.30;0.85;;;;;;;14.23;72.47;98910.09;5093460;28;20384;-54
2022/09/29 14:41:26;;;;;;;1.42;0.98;;;;;;;14.24;69.42;98910.91;5093136;28;20602;-58
2022/09/29 14:43:56;;;;;;;0.60;0.60;;;;;;;14.34;70.07;98913.81;5093243;28;20058;-58
2022/09/29 14:52:38;;;;;;;0.60;0.57;;;;;;;14.27;68.74;98910.44;5092741;28;20036;-61
2022/09/29 14:55:39;;;;;;;1.83;1.08;;;;;;;14.33;66.01;98914.88;5093061;28;20119;-61
2022/09/29 14:58:20;;;;;;;0.55;0.55;;;;;;;14.08;65.17;98920.38;5093196;28;20031;-60
2022/09/29 15:00:45;;;;;;;1.70;0.70;;;;;;;14.21;66.41;98924.72;5092709;28;20129;-60
2022/09/29 15:03:21;;;;;;;0.68;0.68;;;;;;;14.26;66.73;98936.41;5092854;28;20115;-61
2022/09/29 15:05:46;;;;;;;0.75;0.60;;;;;;;14.30;66.69;98929.53;5092408;28;20399;-63
2022/09/29 15:08:35;;;;;;;0.70;0.70;;;;;;;14.34;65.19;98932.56;5074844;28;20050;-63
2022/09/29 15:11:01;;;;;;;0.63;0.47;;;;;;;14.34;63.75;98922.69;5092527;28;20393;-62
2022/09/29 15:13:30;;;;;;;0.60;0.60;;;;;;;14.29;64.31;98927.91;5074442;28;20040;-63
2022/09/29 15:16:03;;;;;;;0.60;0.60;;;;;;;14.18;63.65;98934.03;5092835;28;20453;-63
2022/09/29 15:18:48;;;;;;;0.60;0.60;;;;;;;14.22;64.57;98931.75;5093000;28;20489;-63
2022/09/29 15:21:59;;;;;;;0.73;0.47;;;;;;;14.09;64.76;98925.53;5074387;28;20396;-63
2022/09/29 15:24:43;;;;;;;1.13;0.80;;;;;;;14.03;67.36;98931.78;5092038;28;20373;-60
2022/09/29 15:27:13;;;;;;;0.93;0.80;;;;;;;14.03;69.37;98929.13;5092576;28;20063;-62
2022/09/29 15:29:39;;;;;;;3.13;0.80;;;;;;;14.03;68.39;98928.31;5092586;28;20043;-63
2022/09/29 15:32:27;;;;;;;1.50;0.88;;;;;;;13.94;68.87;98929.66;5092247;28;20035;-62
2022/09/29 15:35:01;;;;;;;0.63;0.60;;;;;;;13.95;68.75;98931.28;5074319;28;20039;-63
2022/09/29 15:37:53;;;;;;;3.25;0.60;;;;;;;13.91;68.32;98938.97;5092301;28;20071;-63
2022/09/29 15:40:24;;;;;;;3.15;0.70;;;;;;;13.90;68.22;98936.50;5091520;28;20082;-63
2022/09/29 15:42:51;;;;;;;0.50;0.50;;;;;;;13.92;70.10;98940.59;5092154;28;20032;-62
2022/09/29 15:45:26;;;;;;;3.35;1.10;;;;;;;13.88;69.96;98941.25;5092357;28;20398;-62
2022/09/29 15:48:06;;;;;;;3.85;1.35;;;;;;;13.87;70.27;98936.94;5092107;28;20122;-62
2022/09/29 15:50:41;;;;;;;5.85;2.00;;;;;;;13.83;71.48;98948.13;5091798;28;20044;-61
2022/09/29 15:53:09;;;;;;;2.33;1.42;;;;;;;13.77;73.08;98945.53;5091991;28;20040;-61
2022/09/29 15:55:35;;;;;;;3.45;1.60;;;;;;;13.79;75.40;98946.94;5092038;28;20484;-61
2022/09/29 15:58:02;;;;;;;4.18;1.80;;;;;;;13.71;76.20;98952.59;5092140;28;20051;-61
2022/09/29 16:00:36;;;;;;;4.32;1.63;;;;;;;13.63;77.95;98955.59;5091612;28;20040;-62
2022/09/29 16:03:18;;;;;;;1.20;0.82;;;;;;;13.58;77.92;98955.44;5092008;28;20404;-60
2022/09/29 16:06:07;;;;;;;2.17;1.15;;;;;;;13.50;78.11;98964.56;5091972;28;20028;-60
2022/09/29 16:08:38;;;;;;;3.40;1.15;;;;;;;13.43;79.13;98966.50;5073673;28;20477;-60
2022/09/29 16:11:08;;;;;;;1.63;1.10;;;;;;;13.40;78.34;98968.78;5091429;28;20028;-61
2022/09/29 16:13:39;;;;;;;1.33;0.80;;;;;;;13.28;79.16;98977.53;5091519;28;20040;-58
2022/09/29 16:16:10;;;;;;;1.73;0.65;;;;;;;13.30;78.33;98986.19;5091683;28;20050;-59
2022/09/29 16:18:35;;;;;;;2.65;1.08;;;;;;;13.27;78.26;98989.28;5091710;28;20805;-60
2022/09/29 16:21:07;;;;;;;2.95;1.17;;;;;;;13.27;79.88;98991.16;5090655;28;20032;-60
2022/09/29 16:23:46;;;;;;;2.60;1.00;;;;;;;13.17;81.04;98983.63;5091573;28;20047;-61
2022/09/29 16:26:17;;;;;;;1.33;1.00;;;;;;;13.18;81.50;98998.63;5092008;28;20503;-60
2022/09/29 16:29:09;;;;;;;2.42;1.00;;;;;;;13.22;80.74;99002.50;5091787;28;20036;-58
2022/09/29 16:31:39;;;;;;;1.83;1.15;;;;;;;13.14;81.79;99013.44;5091183;28;20509;-53
2022/09/29 16:34:20;;;;;;;1.92;1.20;;;;;;;13.11;82.50;99008.56;5091582;28;20089;-50